Time;durP1;ratioP1;P1;durP2;ratioP2;P2;SDS_P1;SDS_P2;PMS_P1;PMS_P2;Temp;Humidity;BMP_temperature;BMP_pressure;BME280_temperature;BME280_humidity;BME280_pressure;Samples;Min_cycle;Max_cycle;Signal;HPM_P1;HPM_P2
2022/11/24 00:00:23;;;;;;;9.15;4.85;;;;;;;;;;4962841;28;20047;-41
2022/11/24 00:02:48;;;;;;;8.27;4.43;;;;;;;;;;4953731;28;20035;-41
2022/11/24 00:05:14;;;;;;;8.27;5.20;;;;;;;;;;4961589;28;20631;-40
2022/11/24 00:07:39;;;;;;;9.88;5.22;;;;;;;;;;4962004;28;20085;-41
2022/11/24 00:10:05;;;;;;;9.68;4.85;;;;;;;;;;4973639;28;20043;-42
2022/11/24 00:12:30;;;;;;;9.98;4.43;;;;;;;;;;4961721;28;20528;-44
2022/11/24 00:14:56;;;;;;;9.05;4.53;;;;;;;;;;4961052;28;20039;-46
2022/11/24 00:17:21;;;;;;;8.10;4.60;;;;;;;;;;4960016;28;20416;-40
2022/11/24 00:19:46;;;;;;;9.13;4.65;;;;;;;;;;4980296;28;20066;-46
2022/11/24 00:22:12;;;;;;;8.48;4.63;;;;;;;;;;4960271;28;20506;-41
2022/11/24 00:24:37;;;;;;;10.55;4.60;;;;;;;;;;4967140;28;20406;-40
2022/11/24 00:27:02;;;;;;;9.45;5.03;;;;;;;;;;4969923;28;20141;-41
2022/11/24 00:29:28;;;;;;;8.55;4.38;;;;;;;;;;4978347;28;20043;-41
2022/11/24 00:31:55;;;;;;;9.20;4.57;;;;;;;;;;4969140;28;20039;-41
2022/11/24 00:34:21;;;;;;;7.68;4.20;;;;;;;;;;4966745;28;20123;-41
2022/11/24 00:36:46;;;;;;;8.07;4.15;;;;;;;;;;4958190;28;20118;-41
2022/11/24 00:39:13;;;;;;;9.23;4.22;;;;;;;;;;4952913;28;20427;-41
2022/11/24 00:41:39;;;;;;;9.52;4.03;;;;;;;;;;4970383;28;20030;-40
2022/11/24 00:44:05;;;;;;;10.77;4.18;;;;;;;;;;4963373;28;20065;-42
2022/11/24 00:46:30;;;;;;;9.48;3.65;;;;;;;;;;4954695;28;20455;-40
2022/11/24 00:48:56;;;;;;;6.63;3.70;;;;;;;;;;4954312;28;20047;-40
2022/11/24 00:51:25;;;;;;;8.27;3.75;;;;;;;;;;4958894;28;20081;-40
2022/11/24 00:53:52;;;;;;;6.13;3.20;;;;;;;;;;4958619;28;20029;-49
2022/11/24 00:56:17;;;;;;;5.18;2.90;;;;;;;;;;4964402;28;20081;-40
2022/11/24 00:58:43;;;;;;;4.32;3.00;;;;;;;;;;4966939;28;20419;-43
2022/11/24 01:01:14;;;;;;;7.82;3.40;;;;;;;;;;4956415;28;20039;-40
2022/11/24 01:03:39;;;;;;;7.55;3.05;;;;;;;;;;4952732;28;20039;-43
2022/11/24 01:06:11;;;;;;;7.03;3.90;;;;;;;;;;4958055;28;20085;-41
2022/11/24 01:08:37;;;;;;;4.57;3.17;;;;;;;;;;4962692;28;20035;-42
2022/11/24 01:11:12;;;;;;;6.65;3.63;;;;;;;;;;4966187;28;20627;-41
2022/11/24 01:13:38;;;;;;;9.48;3.72;;;;;;;;;;4967800;28;20040;-41
2022/11/24 01:16:04;;;;;;;8.15;3.30;;;;;;;;;;4963081;28;20037;-41
2022/11/24 01:18:29;;;;;;;6.75;3.38;;;;;;;;;;4966187;28;20031;-48
2022/11/24 01:20:55;;;;;;;4.88;3.15;;;;;;;;;;4964612;28;20126;-42
2022/11/24 01:23:20;;;;;;;6.47;3.53;;;;;;;;;;4965536;28;20031;-40
2022/11/24 01:25:46;;;;;;;6.20;3.53;;;;;;;;;;4976717;28;20045;-41
2022/11/24 01:28:12;;;;;;;7.57;3.67;;;;;;;;;;4958712;28;20054;-41
2022/11/24 01:30:38;;;;;;;5.47;3.55;;;;;;;;;;4969640;28;20058;-47
2022/11/24 01:33:03;;;;;;;10.07;4.18;;;;;;;;;;4956911;28;20029;-41
2022/11/24 01:35:29;;;;;;;7.32;3.70;;;;;;;;;;4954856;28;20051;-42
2022/11/24 01:37:54;;;;;;;7.10;3.35;;;;;;;;;;4968499;28;20522;-42
2022/11/24 01:40:20;;;;;;;5.97;3.92;;;;;;;;;;4962005;28;20057;-41
2022/11/24 01:42:49;;;;;;;7.20;3.67;;;;;;;;;;4974339;28;20067;-42
2022/11/24 01:45:34;;;;;;;8.45;3.53;;;;;;;;;;4972227;28;20517;-42
2022/11/24 01:48:04;;;;;;;9.00;3.50;;;;;;;;;;4963655;28;20031;-41
2022/11/24 01:50:30;;;;;;;5.38;3.53;;;;;;;;;;4962018;28;20508;-40
2022/11/24 01:52:56;;;;;;;11.60;3.72;;;;;;;;;;4958694;28;20031;-40
2022/11/24 01:55:35;;;;;;;7.18;3.88;;;;;;;;;;4967682;28;20541;-41
2022/11/24 01:58:08;;;;;;;9.02;4.40;;;;;;;;;;4959128;28;20442;-43
2022/11/24 02:00:36;;;;;;;8.40;4.00;;;;;;;;;;4969526;28;20046;-44
2022/11/24 02:03:01;;;;;;;10.77;4.20;;;;;;;;;;4960982;28;20507;-40
2022/11/24 02:05:32;;;;;;;8.55;3.83;;;;;;;;;;4963709;28;20039;-41
2022/11/24 02:07:59;;;;;;;5.82;3.17;;;;;;;;;;4966952;28;20031;-42
2022/11/24 02:10:25;;;;;;;7.03;3.20;;;;;;;;;;4983246;28;20066;-43
2022/11/24 02:12:53;;;;;;;6.10;3.20;;;;;;;;;;4966510;28;20062;-42
2022/11/24 02:15:19;;;;;;;6.40;3.70;;;;;;;;;;4967758;28;20035;-43
2022/11/24 02:17:45;;;;;;;7.90;3.13;;;;;;;;;;4961429;28;20038;-41
2022/11/24 02:20:12;;;;;;;10.07;3.58;;;;;;;;;;4959189;28;20043;-40
2022/11/24 02:22:51;;;;;;;4.82;3.22;;;;;;;;;;4960517;28;20531;-46
2022/11/24 02:25:36;;;;;;;5.80;3.08;;;;;;;;;;4966325;28;20055;-40
2022/11/24 02:28:05;;;;;;;9.23;3.53;;;;;;;;;;4965949;28;20399;-43
2022/11/24 02:30:31;;;;;;;6.18;3.25;;;;;;;;;;4961192;28;20047;-43
2022/11/24 02:32:57;;;;;;;4.45;2.75;;;;;;;;;;4961731;28;20129;-40
2022/11/24 02:35:22;;;;;;;7.35;2.92;;;;;;;;;;4960818;28;20508;-41
2022/11/24 02:37:47;;;;;;;7.65;2.92;;;;;;;;;;4972922;28;20034;-40
2022/11/24 02:40:23;;;;;;;11.20;3.25;;;;;;;;;;4967741;28;20454;-42
2022/11/24 02:42:50;;;;;;;10.82;3.80;;;;;;;;;;4959241;28;20035;-41
2022/11/24 02:45:16;;;;;;;11.55;3.65;;;;;;;;;;4963551;28;20034;-47
2022/11/24 02:47:41;;;;;;;6.32;3.28;;;;;;;;;;4963620;28;20034;-43
2022/11/24 02:50:07;;;;;;;9.80;2.75;;;;;;;;;;4963838;28;20046;-43
2022/11/24 02:52:32;;;;;;;9.45;3.15;;;;;;;;;;4960750;28;20026;-41
2022/11/24 02:54:57;;;;;;;9.43;2.63;;;;;;;;;;4961181;28;20404;-47
2022/11/24 02:57:23;;;;;;;7.78;2.72;;;;;;;;;;4961890;28;20085;-42
2022/11/24 02:59:48;;;;;;;6.75;2.45;;;;;;;;;;4958474;28;20043;-41
2022/11/24 03:02:13;;;;;;;11.15;2.78;;;;;;;;;;4969293;28;20054;-41
2022/11/24 03:04:39;;;;;;;6.90;2.78;;;;;;;;;;4967260;28;20042;-41
2022/11/24 03:07:04;;;;;;;14.52;2.50;;;;;;;;;;4965742;28;20063;-44
2022/11/24 03:09:30;;;;;;;6.38;2.45;;;;;;;;;;4965467;28;20046;-40
2022/11/24 03:11:55;;;;;;;6.03;2.60;;;;;;;;;;4972593;28;20030;-45
2022/11/24 03:14:21;;;;;;;7.25;2.83;;;;;;;;;;4966454;28;20040;-43
2022/11/24 03:16:46;;;;;;;5.07;2.55;;;;;;;;;;4967347;28;20035;-41
2022/11/24 03:19:11;;;;;;;6.72;2.05;;;;;;;;;;4963770;28;20051;-47
2022/11/24 03:21:37;;;;;;;6.28;2.97;;;;;;;;;;4970894;28;20038;-42
2022/11/24 03:24:02;;;;;;;5.55;3.05;;;;;;;;;;4958860;28;20462;-42
2022/11/24 03:26:28;;;;;;;6.97;2.47;;;;;;;;;;4968261;28;20062;-41
2022/11/24 03:28:55;;;;;;;6.13;2.50;;;;;;;;;;4967903;28;20038;-42
2022/11/24 03:31:20;;;;;;;4.38;2.67;;;;;;;;;;4962455;28;20058;-44
2022/11/24 03:33:46;;;;;;;5.85;2.60;;;;;;;;;;4967724;28;20027;-41
2022/11/24 03:36:11;;;;;;;6.00;2.78;;;;;;;;;;4960974;28;20059;-42
2022/11/24 03:38:37;;;;;;;8.27;2.67;;;;;;;;;;4970347;28;20027;-42
2022/11/24 03:41:02;;;;;;;6.25;2.60;;;;;;;;;;4973704;28;20710;-41
2022/11/24 03:43:28;;;;;;;5.70;2.65;;;;;;;;;;4959864;28;20083;-40
2022/11/24 03:45:53;;;;;;;8.07;2.28;;;;;;;;;;4960999;28;20043;-41
2022/11/24 03:48:22;;;;;;;9.45;2.78;;;;;;;;;;4964695;28;20131;-41
2022/11/24 03:50:55;;;;;;;4.18;2.13;;;;;;;;;;4963648;28;20131;-41
2022/11/24 03:53:21;;;;;;;8.25;2.70;;;;;;;;;;4970373;28;20026;-41
2022/11/24 03:55:46;;;;;;;5.50;2.22;;;;;;;;;;4975401;28;20047;-41
2022/11/24 03:58:12;;;;;;;6.57;2.75;;;;;;;;;;4960643;28;20034;-41
2022/11/24 04:00:37;;;;;;;10.98;2.47;;;;;;;;;;4963517;28;20047;-40
2022/11/24 04:03:03;;;;;;;7.93;2.78;;;;;;;;;;4959832;28;20043;-41
2022/11/24 04:05:28;;;;;;;9.20;3.03;;;;;;;;;;4967931;28;20041;-43
2022/11/24 04:07:56;;;;;;;7.18;3.28;;;;;;;;;;4958398;28;20031;-42
2022/11/24 04:10:23;;;;;;;6.82;2.80;;;;;;;;;;4965973;28;20126;-41
2022/11/24 04:12:48;;;;;;;8.00;2.78;;;;;;;;;;4965581;28;20023;-45
2022/11/24 04:15:15;;;;;;;7.22;2.55;;;;;;;;;;4963829;28;20372;-42
2022/11/24 04:17:41;;;;;;;10.07;3.45;;;;;;;;;;4958198;28;20034;-44
2022/11/24 04:20:07;;;;;;;5.18;2.72;;;;;;;;;;4960298;28;20047;-42
2022/11/24 04:22:32;;;;;;;11.18;3.88;;;;;;;;;;4962526;28;20026;-43
2022/11/24 04:24:58;;;;;;;6.68;3.38;;;;;;;;;;4963045;28;20498;-40
2022/11/24 04:27:23;;;;;;;12.23;3.40;;;;;;;;;;4956782;28;20043;-41
2022/11/24 04:29:49;;;;;;;11.43;3.70;;;;;;;;;;4964578;28;20047;-46
2022/11/24 04:32:15;;;;;;;6.38;2.80;;;;;;;;;;4963522;28;20046;-42
2022/11/24 04:34:42;;;;;;;5.03;2.63;;;;;;;;;;4966924;28;20035;-45
2022/11/24 04:37:07;;;;;;;10.35;3.08;;;;;;;;;;4964124;28;20039;-41
2022/11/24 04:39:32;;;;;;;6.55;2.72;;;;;;;;;;4965605;28;20043;-41
2022/11/24 04:41:58;;;;;;;9.80;2.72;;;;;;;;;;4967188;28;20050;-42
2022/11/24 04:44:23;;;;;;;13.80;3.30;;;;;;;;;;4954948;28;20443;-41
2022/11/24 04:46:49;;;;;;;10.85;3.40;;;;;;;;;;4969023;28;20030;-40
2022/11/24 04:49:14;;;;;;;6.70;2.45;;;;;;;;;;4967171;28;20043;-44
2022/11/24 04:51:40;;;;;;;9.32;2.75;;;;;;;;;;4961649;28;20055;-43
2022/11/24 04:54:06;;;;;;;9.07;2.33;;;;;;;;;;4963783;28;20038;-41
2022/11/24 04:56:32;;;;;;;7.03;2.70;;;;;;;;;;4955811;28;20074;-41
2022/11/24 04:58:57;;;;;;;10.57;2.80;;;;;;;;;;4957312;28;20032;-44
2022/11/24 05:01:23;;;;;;;14.13;3.42;;;;;;;;;;4965258;28;20080;-40
2022/11/24 05:03:48;;;;;;;10.68;2.83;;;;;;;;;;4976069;28;20818;-46
2022/11/24 05:06:14;;;;;;;11.93;3.30;;;;;;;;;;4969362;28;20760;-41
2022/11/24 05:08:39;;;;;;;6.82;3.22;;;;;;;;;;4957555;28;20035;-41
2022/11/24 05:11:06;;;;;;;6.72;3.22;;;;;;;;;;4972512;28;20019;-40
2022/11/24 05:13:32;;;;;;;7.07;3.22;;;;;;;;;;4957940;28;20105;-41
2022/11/24 05:15:58;;;;;;;11.05;3.58;;;;;;;;;;4974955;28;20031;-41
2022/11/24 05:18:24;;;;;;;12.07;3.85;;;;;;;;;;4978992;28;20049;-42
2022/11/24 05:20:49;;;;;;;11.98;3.53;;;;;;;;;;4983561;28;20043;-44
2022/11/24 05:23:15;;;;;;;8.20;3.15;;;;;;;;;;4989175;28;20037;-44
2022/11/24 05:25:41;;;;;;;7.30;2.97;;;;;;;;;;4983964;28;21120;-44
2022/11/24 05:28:10;;;;;;;11.35;3.63;;;;;;;;;;4986520;28;20406;-42
2022/11/24 05:30:38;;;;;;;15.20;3.00;;;;;;;;;;4976180;28;20104;-41
2022/11/24 05:33:05;;;;;;;7.50;2.83;;;;;;;;;;4983789;28;20549;-41
2022/11/24 05:35:30;;;;;;;7.85;3.50;;;;;;;;;;4982615;28;20506;-42
2022/11/24 05:37:57;;;;;;;6.47;2.60;;;;;;;;;;4981678;28;20063;-44
2022/11/24 05:40:23;;;;;;;9.90;2.83;;;;;;;;;;4981209;28;20129;-42
2022/11/24 05:42:48;;;;;;;6.68;2.72;;;;;;;;;;4979995;28;20161;-41
2022/11/24 05:45:20;;;;;;;9.98;3.28;;;;;;;;;;4979578;28;20054;-41
2022/11/24 05:47:46;;;;;;;4.87;3.07;;;;;;;;;;4980871;28;20045;-41
2022/11/24 05:50:13;;;;;;;9.55;3.08;;;;;;;;;;4974963;28;20453;-41
2022/11/24 05:52:39;;;;;;;6.00;2.92;;;;;;;;;;4987411;28;20030;-41
2022/11/24 05:55:06;;;;;;;8.35;3.42;;;;;;;;;;4994826;28;20791;-43
2022/11/24 05:57:31;;;;;;;11.05;3.20;;;;;;;;;;4981263;28;20046;-41
2022/11/24 05:59:57;;;;;;;7.85;3.35;;;;;;;;;;4978066;28;20054;-41
2022/11/24 06:02:22;;;;;;;5.22;3.25;;;;;;;;;;4986812;28;20032;-43
2022/11/24 06:04:47;;;;;;;6.50;2.67;;;;;;;;;;4985576;28;20046;-43
2022/11/24 06:07:13;;;;;;;9.00;2.88;;;;;;;;;;4975872;28;20073;-41
2022/11/24 06:09:40;;;;;;;13.90;3.20;;;;;;;;;;4977394;28;20050;-43
2022/11/24 06:12:06;;;;;;;8.77;3.00;;;;;;;;;;4983159;28;20030;-42
2022/11/24 06:14:32;;;;;;;10.35;3.13;;;;;;;;;;4978156;28;20411;-40
2022/11/24 06:16:57;;;;;;;10.68;3.47;;;;;;;;;;4982175;28;20031;-45
2022/11/24 06:19:23;;;;;;;10.20;3.33;;;;;;;;;;4981371;28;20104;-42
2022/11/24 06:21:48;;;;;;;8.15;3.25;;;;;;;;;;4984457;28;20027;-41
2022/11/24 06:24:13;;;;;;;6.80;3.20;;;;;;;;;;4983588;28;20126;-41
2022/11/24 06:26:39;;;;;;;6.55;3.00;;;;;;;;;;4980130;28;20026;-40
2022/11/24 06:29:05;;;;;;;7.05;2.80;;;;;;;;;;4984847;28;20038;-41
2022/11/24 06:31:30;;;;;;;13.18;2.88;;;;;;;;;;4984674;28;20062;-41
2022/11/24 06:33:55;;;;;;;8.88;2.72;;;;;;;;;;4984468;28;20043;-42
2022/11/24 06:36:21;;;;;;;7.13;2.95;;;;;;;;;;4984464;28;20026;-40
2022/11/24 06:38:46;;;;;;;18.58;3.67;;;;;;;;;;4983450;28;20073;-41
2022/11/24 06:41:14;;;;;;;15.13;3.60;;;;;;;;;;4983911;28;20402;-42
2022/11/24 06:43:40;;;;;;;9.80;3.20;;;;;;;;;;4983463;28;20430;-41
2022/11/24 06:46:06;;;;;;;7.53;3.30;;;;;;;;;;4979120;28;20031;-44
2022/11/24 06:48:32;;;;;;;13.82;3.20;;;;;;;;;;4984362;28;20100;-42
2022/11/24 06:50:58;;;;;;;13.35;4.28;;;;;;;;;;4985536;28;20046;-40
2022/11/24 06:53:24;;;;;;;12.48;3.17;;;;;;;;;;4983979;28;21322;-41
2022/11/24 06:55:50;;;;;;;6.65;2.47;;;;;;;;;;4984074;28;20913;-42
2022/11/24 06:58:15;;;;;;;9.65;2.90;;;;;;;;;;4987609;28;20442;-44
2022/11/24 07:00:41;;;;;;;7.28;2.50;;;;;;;;;;4977243;28;20137;-41
2022/11/24 07:03:06;;;;;;;7.57;2.67;;;;;;;;;;4983218;28;20030;-42
2022/11/24 07:05:31;;;;;;;12.80;3.08;;;;;;;;;;4982680;28;20070;-44
2022/11/24 07:07:59;;;;;;;17.00;2.97;;;;;;;;;;4985883;28;20022;-41
2022/11/24 07:10:25;;;;;;;12.88;3.50;;;;;;;;;;4983579;28;20542;-43
2022/11/24 07:12:50;;;;;;;9.85;3.00;;;;;;;;;;4983209;28;20038;-41
2022/11/24 07:15:15;;;;;;;10.68;3.20;;;;;;;;;;4980040;28;20628;-42
2022/11/24 07:17:41;;;;;;;360.55;196.02;;;;;;;;;;4983225;28;20066;-45
2022/11/24 07:20:08;;;;;;;55.95;28.75;;;;;;;;;;4983079;28;20046;-42
2022/11/24 07:22:33;;;;;;;29.60;8.73;;;;;;;;;;4981927;28;20040;-41
2022/11/24 07:24:59;;;;;;;14.35;4.85;;;;;;;;;;4987754;28;20042;-41
2022/11/24 07:27:26;;;;;;;12.13;3.53;;;;;;;;;;4981423;28;20034;-42
2022/11/24 07:29:51;;;;;;;12.15;5.15;;;;;;;;;;4972915;28;20042;-41
2022/11/24 07:32:18;;;;;;;10.68;3.45;;;;;;;;;;4983067;28;20458;-46
2022/11/24 07:34:43;;;;;;;12.65;5.68;;;;;;;;;;4987015;28;20108;-43
2022/11/24 07:37:08;;;;;;;44.33;31.83;;;;;;;;;;4988837;28;20518;-42
2022/11/24 07:39:34;;;;;;;22.13;14.23;;;;;;;;;;4986928;28;20096;-41
2022/11/24 07:41:59;;;;;;;13.20;4.10;;;;;;;;;;4989119;28;20077;-43
2022/11/24 07:44:25;;;;;;;9.85;3.83;;;;;;;;;;4984802;28;20050;-41
2022/11/24 07:46:51;;;;;;;12.75;5.90;;;;;;;;;;4984854;28;20029;-41
2022/11/24 07:49:17;;;;;;;18.98;8.95;;;;;;;;;;4983939;28;20053;-42
2022/11/24 07:51:43;;;;;;;9.05;3.33;;;;;;;;;;4986074;28;20030;-44
2022/11/24 07:54:09;;;;;;;8.05;2.70;;;;;;;;;;4986138;28;20073;-42
2022/11/24 07:56:34;;;;;;;10.85;2.88;;;;;;;;;;4983395;28;20022;-42
2022/11/24 07:59:00;;;;;;;12.73;2.95;;;;;;;;;;4983103;28;20694;-41
2022/11/24 08:01:25;;;;;;;9.18;2.85;;;;;;;;;;4982334;28;20036;-43
2022/11/24 08:03:50;;;;;;;9.40;3.40;;;;;;;;;;4988885;28;25764;-44
2022/11/24 08:06:17;;;;;;;7.70;3.83;;;;;;;;;;4987965;28;20041;-42
2022/11/24 08:08:43;;;;;;;13.50;3.63;;;;;;;;;;4986273;28;20530;-41
2022/11/24 08:11:11;;;;;;;11.60;3.30;;;;;;;;;;4985949;28;20133;-41
2022/11/24 08:13:37;;;;;;;10.65;3.63;;;;;;;;;;4977859;28;20061;-43
2022/11/24 08:16:04;;;;;;;10.38;3.58;;;;;;;;;;4989331;28;20420;-41
2022/11/24 08:18:29;;;;;;;11.27;3.50;;;;;;;;;;4984265;28;20026;-40
2022/11/24 08:20:57;;;;;;;10.13;3.08;;;;;;;;;;4984792;28;20529;-41
2022/11/24 08:23:23;;;;;;;10.35;3.50;;;;;;;;;;4983033;28;20089;-41
2022/11/24 08:25:48;;;;;;;10.88;3.63;;;;;;;;;;4987785;28;20510;-42
2022/11/24 08:28:13;;;;;;;17.27;2.90;;;;;;;;;;4988738;28;20368;-42
2022/11/24 08:30:39;;;;;;;15.52;3.42;;;;;;;;;;4984129;28;20058;-43
2022/11/24 08:33:04;;;;;;;12.40;2.97;;;;;;;;;;4985891;28;20084;-41
2022/11/24 08:35:29;;;;;;;11.13;2.90;;;;;;;;;;4983929;28;20085;-43
2022/11/24 08:37:55;;;;;;;13.85;3.85;;;;;;;;;;4983704;28;20022;-41
2022/11/24 08:40:21;;;;;;;11.77;3.28;;;;;;;;;;4987954;28;20035;-44
2022/11/24 08:42:47;;;;;;;13.77;3.38;;;;;;;;;;4981437;28;20202;-41
2022/11/24 08:45:12;;;;;;;6.70;3.20;;;;;;;;;;4985854;28;20445;-44
2022/11/24 08:47:38;;;;;;;14.63;3.13;;;;;;;;;;4983180;28;20089;-41
2022/11/24 08:50:04;;;;;;;16.83;2.95;;;;;;;;;;4986448;28;20034;-45
2022/11/24 08:52:30;;;;;;;13.73;3.38;;;;;;;;;;4989240;28;20072;-42
2022/11/24 08:54:56;;;;;;;10.20;2.70;;;;;;;;;;4982366;28;20125;-42
2022/11/24 08:57:23;;;;;;;14.95;3.15;;;;;;;;;;4984721;28;20030;-42
2022/11/24 08:59:49;;;;;;;20.33;3.80;;;;;;;;;;4982708;28;20053;-43
2022/11/24 09:02:14;;;;;;;9.60;2.75;;;;;;;;;;4986516;28;20494;-42
2022/11/24 09:04:39;;;;;;;7.90;2.95;;;;;;;;;;4977478;28;20046;-43
2022/11/24 09:07:05;;;;;;;16.33;3.17;;;;;;;;;;4988279;28;20031;-42
2022/11/24 09:09:30;;;;;;;12.10;3.90;;;;;;;;;;4985397;28;20039;-45
2022/11/24 09:11:56;;;;;;;14.68;4.03;;;;;;;;;;4984712;28;20041;-44
2022/11/24 09:14:21;;;;;;;15.20;3.70;;;;;;;;;;4982482;28;20111;-43
2022/11/24 09:16:46;;;;;;;15.65;3.78;;;;;;;;;;4985057;28;20110;-41
2022/11/24 09:19:12;;;;;;;14.85;3.63;;;;;;;;;;4981380;28;20487;-41
2022/11/24 09:21:37;;;;;;;22.33;4.20;;;;;;;;;;4983758;28;20038;-42
2022/11/24 09:24:06;;;;;;;11.25;3.30;;;;;;;;;;4981524;28;20038;-41
2022/11/24 09:26:34;;;;;;;11.85;3.65;;;;;;;;;;4989029;28;20387;-41
2022/11/24 09:29:01;;;;;;;14.65;3.58;;;;;;;;;;4980983;28;20100;-42
2022/11/24 09:31:29;;;;;;;9.93;3.33;;;;;;;;;;4945833;28;20097;-41
2022/11/24 09:33:55;;;;;;;14.93;3.65;;;;;;;;;;4951794;28;20138;-42
2022/11/24 09:36:21;;;;;;;14.15;3.97;;;;;;;;;;4966576;28;20118;-41
2022/11/24 09:38:46;;;;;;;19.23;4.85;;;;;;;;;;4961928;28;20476;-42
2022/11/24 09:41:35;;;;;;;20.27;4.50;;;;;;;;;;4964100;28;20039;-47
2022/11/24 09:44:08;;;;;;;14.68;4.45;;;;;;;;;;4967926;28;20042;-42
2022/11/24 09:46:59;;;;;;;10.75;4.03;;;;;;;;;;4965358;28;20027;-42
2022/11/24 09:49:42;;;;;;;15.38;4.38;;;;;;;;;;4961796;28;20051;-43
2022/11/24 09:52:13;;;;;;;16.60;5.05;;;;;;;;;;4963022;28;20031;-43
2022/11/24 09:54:51;;;;;;;13.15;4.80;;;;;;;;;;4966498;28;20047;-42
2022/11/24 09:57:20;;;;;;;15.88;4.40;;;;;;;;;;4967690;28;20019;-42
2022/11/24 09:59:46;;;;;;;15.43;3.88;;;;;;;;;;4959802;28;20101;-41
2022/11/24 10:02:14;;;;;;;14.38;4.10;;;;;;;;;;4963077;28;20109;-42
2022/11/24 10:04:45;;;;;;;15.43;4.10;;;;;;;;;;4968662;28;20078;-41
2022/11/24 10:07:10;;;;;;;13.60;4.60;;;;;;;;;;4969240;28;20027;-40
2022/11/24 10:09:57;;;;;;;11.90;3.28;;;;;;;;;;4966541;28;20046;-44
2022/11/24 10:12:54;;;;;;;12.90;3.53;;;;;;;;;;4969185;28;20486;-43
2022/11/24 10:15:40;;;;;;;10.68;2.95;;;;;;;;;;4969395;28;20039;-43
2022/11/24 10:18:11;;;;;;;18.55;4.07;;;;;;;;;;4969675;28;20035;-43
2022/11/24 10:20:59;;;;;;;11.35;3.95;;;;;;;;;;4969972;28;20452;-45
2022/11/24 10:23:40;;;;;;;14.40;3.47;;;;;;;;;;4965215;28;20070;-42
2022/11/24 10:26:43;;;;;;;13.18;3.13;;;;;;;;;;4968021;28;20038;-42
2022/11/24 10:29:12;;;;;;;15.80;3.45;;;;;;;;;;4968166;28;20051;-48
2022/11/24 10:31:41;;;;;;;22.20;4.22;;;;;;;;;;5007323;28;20030;-41
2022/11/24 10:34:16;;;;;;;8.45;3.15;;;;;;;;;;5006918;28;21022;-45
2022/11/24 10:36:48;;;;;;;13.50;2.85;;;;;;;;;;5008589;28;20032;-49
2022/11/24 10:39:18;;;;;;;14.98;3.50;;;;;;;;;;5006005;28;20037;-48
2022/11/24 10:41:57;;;;;;;15.20;3.30;;;;;;;;;;5010045;28;20445;-49
2022/11/24 10:44:23;;;;;;;10.43;3.47;;;;;;;;;;5001530;28;20039;-43
2022/11/24 10:46:49;;;;;;;14.32;4.18;;;;;;;;;;5012970;28;20057;-44
2022/11/24 10:49:23;;;;;;;12.68;4.07;;;;;;;;;;5002888;28;20037;-45
2022/11/24 10:52:00;;;;;;;11.73;3.67;;;;;;;;;;5013377;28;20057;-45
2022/11/24 10:54:27;;;;;;;15.50;3.55;;;;;;;;;;5016483;28;20038;-43
2022/11/24 10:56:54;;;;;;;17.52;4.28;;;;;;;;;;5004461;28;20117;-47
2022/11/24 10:59:36;;;;;;;12.48;4.07;;;;;;;;;;5011167;28;20398;-45
2022/11/24 11:02:27;;;;;;;8.82;3.47;;;;;;;;;;5004162;28;20037;-49
2022/11/24 11:04:52;;;;;;;17.17;3.63;;;;;;;;;;5016152;28;20436;-43
2022/11/24 11:07:20;;;;;;;9.05;3.28;;;;;;;;;;5010663;28;20026;-46
2022/11/24 11:09:47;;;;;;;14.90;3.45;;;;;;;;;;5014082;28;20042;-46
2022/11/24 11:12:22;;;;;;;12.35;3.35;;;;;;;;;;5003289;28;20041;-43
2022/11/24 11:14:49;;;;;;;7.60;3.00;;;;;;;;;;5004050;28;20049;-42
2022/11/24 11:17:43;;;;;;;15.65;3.63;;;;;;;;;;5002456;28;20079;-42
2022/11/24 11:20:18;;;;;;;16.52;4.20;;;;;;;;;;4984572;28;20042;-44
2022/11/24 11:22:46;;;;;;;17.00;4.13;;;;;;;;;;5001581;28;20061;-45
2022/11/24 11:25:11;;;;;;;12.45;4.38;;;;;;;;;;5006933;28;20038;-43
2022/11/24 11:27:39;;;;;;;17.45;3.67;;;;;;;;;;4998880;28;20649;-43
2022/11/24 11:30:26;;;;;;;8.15;3.40;;;;;;;;;;5009676;28;20058;-42
2022/11/24 11:32:56;;;;;;;10.40;3.17;;;;;;;;;;5000218;28;20595;-44
2022/11/24 11:35:25;;;;;;;10.23;3.67;;;;;;;;;;5005383;28;20042;-44
2022/11/24 11:37:53;;;;;;;11.00;3.58;;;;;;;;;;5011505;28;20038;-45
2022/11/24 11:40:27;;;;;;;10.10;3.33;;;;;;;;;;5004804;28;20560;-42
2022/11/24 11:43:32;;;;;;;8.52;2.88;;;;;;;;;;5001891;28;20398;-42
2022/11/24 11:46:06;;;;;;;10.73;3.10;;;;;;;;;;4985316;28;20053;-42
2022/11/24 11:48:34;;;;;;;13.60;3.20;;;;;;;;;;5002566;28;20044;-42
2022/11/24 11:51:29;;;;;;;13.38;3.75;;;;;;;;;;5009217;28;20030;-49
2022/11/24 11:54:12;;;;;;;9.23;3.33;;;;;;;;;;5005087;28;20069;-43
2022/11/24 11:56:48;;;;;;;7.45;2.85;;;;;;;;;;5004706;28;20576;-46
2022/11/24 11:59:19;;;;;;;9.85;2.72;;;;;;;;;;5005284;28;20038;-42
2022/11/24 12:02:19;;;;;;;15.50;3.58;;;;;;;;;;5006281;28;20038;-43
2022/11/24 12:04:57;;;;;;;15.20;3.20;;;;;;;;;;5002080;28;20128;-42
2022/11/24 12:07:36;;;;;;;12.85;3.20;;;;;;;;;;5005402;28;20121;-44
2022/11/24 12:10:23;;;;;;;11.60;3.63;;;;;;;;;;5004868;28;20446;-43
2022/11/24 12:13:26;;;;;;;12.70;3.40;;;;;;;;;;5003219;28;20037;-42
2022/11/24 12:15:54;;;;;;;11.70;3.38;;;;;;;;;;5007818;28;20497;-42
2022/11/24 12:18:38;;;;;;;13.00;3.60;;;;;;;;;;5007169;28;20030;-44
2022/11/24 12:21:17;;;;;;;14.10;3.50;;;;;;;;;;5002422;28;20407;-43
2022/11/24 12:24:00;;;;;;;10.20;2.80;;;;;;;;;;5003228;28;20414;-42
2022/11/24 12:26:55;;;;;;;12.95;3.50;;;;;;;;;;5003834;28;20081;-42
2022/11/24 12:29:45;;;;;;;13.30;3.53;;;;;;;;;;5004402;28;20058;-43
2022/11/24 12:32:32;;;;;;;15.13;3.58;;;;;;;;;;5004420;28;20037;-43
2022/11/24 12:35:26;;;;;;;16.05;3.20;;;;;;;;;;5003078;28;20449;-42
2022/11/24 12:38:04;;;;;;;11.23;3.55;;;;;;;;;;4992192;28;20486;-44
2022/11/24 12:41:06;;;;;;;14.23;3.40;;;;;;;;;;5006239;28;20077;-42
2022/11/24 12:43:35;;;;;;;14.88;4.13;;;;;;;;;;5008428;28;20487;-38
2022/11/24 12:46:19;;;;;;;12.25;3.45;;;;;;;;;;5002747;28;20117;-44
2022/11/24 12:49:17;;;;;;;13.65;3.20;;;;;;;;;;5005794;28;20022;-42
2022/11/24 12:51:47;;;;;;;8.95;3.35;;;;;;;;;;5006328;28;20029;-42
2022/11/24 12:54:16;;;;;;;13.93;3.00;;;;;;;;;;5004095;28;20046;-42
2022/11/24 12:56:48;;;;;;;11.70;3.50;;;;;;;;;;5004297;28;20029;-42
2022/11/24 12:59:13;;;;;;;;;;;;;;;;;;5003987;28;20054;-44
2022/11/24 13:01:49;;;;;;;17.13;3.10;;;;;;;;;;5003119;28;19928;-44
2022/11/24 13:04:31;;;;;;;13.88;3.00;;;;;;;;;;5003903;28;20071;-42
2022/11/24 13:07:03;;;;;;;;;;;;;;;;;;5003676;28;20033;-39
2022/11/24 13:09:28;;;;;;;15.85;2.90;;;;;;;;;;5007442;28;19921;-40
2022/11/24 13:12:07;;;;;;;11.00;2.95;;;;;;;;;;5000239;28;20106;-40
2022/11/24 13:14:36;;;;;;;10.55;2.83;;;;;;;;;;5001454;28;20089;-42
2022/11/24 13:17:25;;;;;;;13.85;3.35;;;;;;;;;;5005689;28;20030;-42
2022/11/24 13:19:51;;;;;;;10.77;3.28;;;;;;;;;;5003360;28;20524;-42
2022/11/24 13:22:24;;;;;;;13.25;3.45;;;;;;;;;;5000233;28;20038;-39
2022/11/24 13:25:27;;;;;;;9.23;2.83;;;;;;;;;;5005609;28;20129;-42
2022/11/24 13:27:58;;;;;;;14.05;2.75;;;;;;;;;;4922416;29;20055;-41
2022/11/24 13:30:32;;;;;;;10.93;2.33;;;;;;;;;;4921535;29;20048;-40
2022/11/24 13:33:29;;;;;;;14.95;3.00;;;;;;;;;;4921090;29;20046;-40
2022/11/24 13:36:03;;;;;;;13.93;2.60;;;;;;;;;;4919844;29;20147;-41
2022/11/24 13:38:44;;;;;;;18.65;3.30;;;;;;;;;;4929504;29;20036;-40
2022/11/24 13:41:30;;;;;;;9.60;2.93;;;;;;;;;;4926489;29;20492;-42
2022/11/24 13:44:13;;;;;;;9.80;2.65;;;;;;;;;;4929821;29;20047;-42
2022/11/24 13:46:58;;;;;;;16.23;3.30;;;;;;;;;;4931133;29;21170;-40
2022/11/24 13:49:32;;;;;;;9.95;3.30;;;;;;;;;;4926858;29;20135;-40
2022/11/24 13:52:36;;;;;;;7.63;2.80;;;;;;;;;;4929928;29;20043;-42
2022/11/24 13:55:10;;;;;;;9.73;3.28;;;;;;;;;;4929172;29;20096;-42
2022/11/24 13:58:09;;;;;;;7.57;2.75;;;;;;;;;;4924607;29;20805;-40
2022/11/24 14:00:55;;;;;;;13.40;3.53;;;;;;;;;;4921886;29;20086;-40
2022/11/24 14:03:34;;;;;;;14.10;4.97;;;;;;;;;;4960707;28;20089;-42
2022/11/24 14:06:01;;;;;;;11.30;3.20;;;;;;;;;;5002810;28;20080;-40
2022/11/24 14:08:35;;;;;;;10.95;3.30;;;;;;;;;;4998813;28;20048;-40
2022/11/24 14:11:02;;;;;;;12.27;3.90;;;;;;;;;;5002149;28;20042;-40
2022/11/24 14:13:30;;;;;;;11.95;3.72;;;;;;;;;;5005975;28;20104;-40
2022/11/24 14:16:02;;;;;;;14.40;3.47;;;;;;;;;;5001684;28;20041;-40
2022/11/24 14:18:28;;;;;;;14.57;4.38;;;;;;;;;;5003724;28;20021;-42
2022/11/24 14:20:57;;;;;;;12.35;4.13;;;;;;;;;;5004361;28;20054;-40
2022/11/24 14:23:23;;;;;;;9.90;3.03;;;;;;;;;;5005359;28;20061;-42
2022/11/24 14:25:49;;;;;;;10.52;2.60;;;;;;;;;;5002570;28;20077;-41
2022/11/24 14:28:25;;;;;;;11.77;4.05;;;;;;;;;;5006651;28;20041;-41
2022/11/24 14:31:08;;;;;;;8.93;2.47;;;;;;;;;;5005432;28;20434;-40
2022/11/24 14:33:34;;;;;;;12.32;3.38;;;;;;;;;;5004814;28;20034;-40
2022/11/24 14:36:00;;;;;;;9.32;3.10;;;;;;;;;;5009845;28;20026;-43
2022/11/24 14:38:25;;;;;;;10.38;2.65;;;;;;;;;;5006752;28;20030;-40
2022/11/24 14:40:53;;;;;;;12.50;3.97;;;;;;;;;;5008268;28;20053;-40
2022/11/24 14:43:31;;;;;;;7.78;2.80;;;;;;;;;;4999941;28;20482;-40
2022/11/24 14:45:59;;;;;;;11.30;3.15;;;;;;;;;;5004132;28;20128;-40
2022/11/24 14:48:38;;;;;;;11.93;3.35;;;;;;;;;;5006663;28;20030;-45
2022/11/24 14:51:15;;;;;;;8.50;2.60;;;;;;;;;;5006607;28;20100;-42